Time;durP1;ratioP1;P1;durP2;ratioP2;P2;SDS_P1;SDS_P2;PMS_P1;PMS_P2;Temp;Humidity;BMP_temperature;BMP_pressure;BME280_temperature;BME280_humidity;BME280_pressure;Samples;Min_cycle;Max_cycle;Signal;HPM_P1;HPM_P2
2021/10/13 05:23:21;;;;;;;24.63;11.38;;;230.70;1945.60;;;;;;5240014;23;20053;-62
2021/10/13 05:25:47;;;;;;;17.00;11.65;;;230.70;1971.20;;;;;;4918640;29;20124;-73
2021/10/13 05:28:13;;;;;;;14.35;10.07;;;230.70;1971.20;;;;;;4921273;29;20044;-62
2021/10/13 05:30:38;;;;;;;14.38;10.55;;;230.70;1971.20;;;;;;4921451;29;20046;-73
2021/10/13 05:33:04;;;;;;;18.48;9.80;;;230.70;1971.20;;;;;;4921269;29;20493;-63
2021/10/13 05:35:30;;;;;;;15.20;9.75;;;230.80;1996.80;;;;;;4921233;29;20378;-62
2021/10/13 05:37:56;;;;;;;18.95;9.95;;;230.80;1996.80;;;;;;4921081;29;20042;-73
2021/10/13 05:40:21;;;;;;;14.60;9.85;;;230.80;1996.80;;;;;;4921061;29;20434;-70
2021/10/13 05:42:47;;;;;;;15.38;9.57;;;230.80;1996.80;;;;;;4921102;29;20044;-62
2021/10/13 05:45:13;;;;;;;13.40;9.57;;;230.80;1996.80;;;;;;4920930;29;20032;-73
2021/10/13 05:47:39;;;;;;;21.80;9.88;;;230.90;1996.80;;;;;;4920957;29;20032;-62
2021/10/13 05:50:05;;;;;;;28.95;18.75;;;230.90;1996.80;;;;;;4920751;29;20032;-63
2021/10/13 05:52:31;;;;;;;43.17;35.42;;;230.90;1996.80;;;;;;4920892;29;20036;-63
2021/10/13 05:54:56;;;;;;;29.10;24.05;;;231.00;1996.80;;;;;;4920801;29;20500;-62
2021/10/13 05:57:22;;;;;;;21.40;14.77;;;231.00;1996.80;;;;;;4920440;29;20036;-73
2021/10/13 05:59:56;;;;;;;45.30;16.25;;;231.00;1996.80;;;;;;4920652;29;20063;-71
2021/10/13 06:02:21;;;;;;;67.60;14.68;;;231.00;1996.80;;;;;;4920682;29;20054;-71
2021/10/13 06:04:47;;;;;;;34.38;12.70;;;231.00;2022.40;;;;;;4920545;29;20111;-64
2021/10/13 06:07:13;;;;;;;30.92;11.45;;;231.00;2022.40;;;;;;4920592;29;20036;-66
2021/10/13 06:09:38;;;;;;;18.70;10.75;;;231.00;2022.40;;;;;;4920302;29;20470;-69
2021/10/13 06:12:04;;;;;;;17.95;11.13;;;231.00;2022.40;;;;;;4920674;29;20039;-64
2021/10/13 06:14:30;;;;;;;23.38;13.27;;;231.00;2022.40;;;;;;4920654;29;20028;-68
2021/10/13 06:16:56;;;;;;;26.08;15.73;;;231.00;2048.00;;;;;;4920613;29;20050;-70
2021/10/13 06:19:22;;;;;;;27.25;15.98;;;231.00;2048.00;;;;;;4920627;29;20055;-62
2021/10/13 06:21:48;;;;;;;26.70;15.18;;;231.00;2048.00;;;;;;4919869;29;20040;-69
2021/10/13 06:24:13;;;;;;;30.38;15.30;;;231.00;2073.60;;;;;;4920093;29;20123;-64
2021/10/13 06:26:39;;;;;;;29.08;14.95;;;231.00;2073.60;;;;;;4920389;29;20040;-69
2021/10/13 06:29:05;;;;;;;22.80;13.40;;;231.00;2073.60;;;;;;4920364;29;20036;-70
2021/10/13 06:31:31;;;;;;;19.30;12.40;;;231.00;2073.60;;;;;;4920361;29;20097;-62
2021/10/13 06:33:57;;;;;;;25.13;12.68;;;231.00;2073.60;;;;;;4918848;29;20512;-68
2021/10/13 06:36:22;;;;;;;21.02;11.93;;;231.00;2073.60;;;;;;4919832;29;20115;-62
2021/10/13 06:38:49;;;;;;;20.52;13.30;;;231.10;2099.20;;;;;;4919975;29;20032;-61
2021/10/13 06:41:14;;;;;;;21.58;13.35;;;231.10;2099.20;;;;;;4919796;29;20059;-64
2021/10/13 06:43:40;;;;;;;22.05;13.63;;;231.10;2099.20;;;;;;4920266;29;20028;-61
2021/10/13 06:46:06;;;;;;;21.58;13.55;;;231.10;2099.20;;;;;;4919388;29;20043;-68
2021/10/13 06:48:32;;;;;;;20.63;14.07;;;231.20;2099.20;;;;;;4919852;29;20032;-61
2021/10/13 06:50:59;;;;;;;19.25;13.88;;;231.20;2124.80;;;;;;4919819;29;20131;-69
2021/10/13 06:53:26;;;;;;;23.55;15.10;;;231.30;2124.80;;;;;;4919778;29;20032;-67
2021/10/13 06:55:52;;;;;;;24.58;13.32;;;231.30;2099.20;;;;;;4919833;29;20501;-69
2021/10/13 06:58:17;;;;;;;20.77;14.32;;;256.00;2099.20;;;;;;4919830;29;20036;-69
2021/10/13 07:00:43;;;;;;;31.75;13.88;;;256.00;2124.80;;;;;;4919371;29;20446;-69
2021/10/13 07:03:09;;;;;;;27.20;13.88;;;256.00;2124.80;;;;;;4919813;29;20037;-70
2021/10/13 07:05:36;;;;;;;22.60;15.63;;;256.10;2124.80;;;;;;4919545;29;20525;-71
2021/10/13 07:08:02;;;;;;;27.05;15.65;;;256.20;2150.40;;;;;;4919307;29;20479;-63
2021/10/13 07:10:28;;;;;;;20.70;13.80;;;256.30;2124.80;;;;;;4919636;29;20036;-70
2021/10/13 07:12:53;;;;;;;20.98;13.55;;;256.30;2124.80;;;;;;4919508;29;20434;-63
2021/10/13 07:15:20;;;;;;;26.35;14.93;;;256.40;2124.80;;;;;;4902138;29;20040;-70
2021/10/13 07:17:46;;;;;;;26.90;14.70;;;256.50;2150.40;;;;;;4919490;29;20044;-67
2021/10/13 07:20:12;;;;;;;30.83;15.43;;;256.60;2150.40;;;;;;4919554;29;20111;-63
2021/10/13 07:22:37;;;;;;;21.25;14.32;;;256.70;2124.80;;;;;;4919311;29;20032;-70
2021/10/13 07:25:05;;;;;;;29.02;16.27;;;256.70;2124.80;;;;;;4919205;29;20052;-71
2021/10/13 07:27:30;;;;;;;21.90;14.27;;;256.80;2150.40;;;;;;4919086;29;20508;-70
2021/10/13 07:29:58;;;;;;;43.65;23.88;;;256.90;2124.80;;;;;;4919232;29;20044;-70
2021/10/13 07:32:27;;;;;;;39.42;23.35;;;281.60;2150.40;;;;;;4919238;29;20374;-71
2021/10/13 07:34:53;;;;;;;40.35;26.05;;;281.60;2150.40;;;;;;4919143;29;20478;-70
2021/10/13 07:37:19;;;;;;;40.72;27.73;;;281.70;2124.80;;;;;;4918978;29;20043;-64
2021/10/13 07:39:46;;;;;;;40.83;25.63;;;281.80;2124.80;;;;;;4918989;29;20047;-70
2021/10/13 07:42:11;;;;;;;33.33;24.10;;;281.80;2124.80;;;;;;4919138;29;20063;-63
2021/10/13 07:44:38;;;;;;;33.67;21.75;;;281.90;2124.80;;;;;;4900565;29;20478;-63
2021/10/13 07:47:04;;;;;;;33.63;23.60;;;282.00;2124.80;;;;;;4918825;29;20451;-71
2021/10/13 07:49:30;;;;;;;39.10;21.70;;;282.10;2124.80;;;;;;4918684;29;20044;-63
2021/10/13 07:51:55;;;;;;;35.70;21.15;;;282.10;2124.80;;;;;;4918897;29;20119;-63
2021/10/13 07:54:21;;;;;;;46.20;26.38;;;282.20;2124.80;;;;;;4918758;29;20058;-70
2021/10/13 07:56:48;;;;;;;66.45;34.47;;;282.30;2124.80;;;;;;4918536;29;20096;-63
2021/10/13 07:59:14;;;;;;;54.42;27.35;;;282.30;2124.80;;;;;;4918532;29;20095;-63
2021/10/13 08:01:42;;;;;;;95.10;36.92;;;282.40;2124.80;;;;;;4918195;29;20052;-63
2021/10/13 08:04:08;;;;;;;94.43;32.90;;;282.50;2124.80;;;;;;4918214;29;20089;-70
2021/10/13 08:06:34;;;;;;;42.58;19.85;;;307.20;2124.80;;;;;;4917790;29;20434;-63
2021/10/13 08:09:00;;;;;;;30.23;16.63;;;307.20;2124.80;;;;;;4918412;29;20036;-65
2021/10/13 08:11:26;;;;;;;83.13;32.28;;;307.30;2124.80;;;;;;4918413;29;20036;-71
2021/10/13 08:13:52;;;;;;;133.13;46.70;;;307.40;2124.80;;;;;;4918701;29;20046;-71
2021/10/13 08:16:18;;;;;;;110.40;43.63;;;307.40;2124.80;;;;;;4918349;29;20434;-70
2021/10/13 08:18:44;;;;;;;80.72;32.70;;;307.60;2124.80;;;;;;4918423;29;20048;-64
2021/10/13 08:21:10;;;;;;;53.20;26.80;;;307.60;2099.20;;;;;;4918021;29;20048;-63
2021/10/13 08:23:36;;;;;;;34.28;19.67;;;307.70;2124.80;;;;;;4918325;29;20032;-63
2021/10/13 08:26:03;;;;;;;29.27;17.98;;;307.80;2099.20;;;;;;4918166;29;20052;-70
2021/10/13 08:28:29;;;;;;;25.80;17.15;;;307.90;2099.20;;;;;;4918092;29;20039;-64
2021/10/13 08:30:56;;;;;;;29.45;19.10;;;308.00;2124.80;;;;;;4918164;29;20036;-63
2021/10/13 08:33:22;;;;;;;29.33;17.70;;;308.10;2124.80;;;;;;4918043;29;20032;-63
2021/10/13 08:35:48;;;;;;;25.65;18.05;;;332.80;2150.40;;;;;;4917940;29;20469;-63
2021/10/13 08:38:14;;;;;;;25.70;17.77;;;333.00;2124.80;;;;;;4917807;29;20098;-64
2021/10/13 08:40:41;;;;;;;27.15;17.60;;;333.00;2099.20;;;;;;4917997;29;20119;-70
2021/10/13 08:43:07;;;;;;;20.90;13.80;;;333.10;2099.20;;;;;;4917882;29;20072;-63
2021/10/13 08:45:35;;;;;;;21.40;13.77;;;333.20;2073.60;;;;;;4917928;29;20115;-63
2021/10/13 08:48:02;;;;;;;29.85;18.90;;;333.30;2048.00;;;;;;4917903;29;20040;-71
2021/10/13 08:50:29;;;;;;;23.92;16.13;;;333.30;2073.60;;;;;;4917810;29;20036;-70
2021/10/13 08:53:08;;;;;;;21.65;14.10;;;333.40;2048.00;;;;;;4917604;29;20036;-71
2021/10/13 08:55:37;;;;;;;20.33;12.90;;;333.50;2048.00;;;;;;4917882;29;20071;-65
2021/10/13 08:58:18;;;;;;;18.17;13.18;;;333.50;2048.00;;;;;;4917114;29;20040;-71
2021/10/13 09:00:49;;;;;;;18.52;13.27;;;333.60;2048.00;;;;;;4917681;29;20056;-68
2021/10/13 09:03:29;;;;;;;19.52;12.75;;;333.70;2048.00;;;;;;4917454;29;20087;-70
2021/10/13 09:05:56;;;;;;;19.90;13.45;;;333.70;2022.40;;;;;;4917660;29;20060;-64
2021/10/13 09:08:22;;;;;;;22.80;13.05;;;358.40;2022.40;;;;;;4917654;29;20071;-63
2021/10/13 09:10:48;;;;;;;21.50;14.10;;;358.40;1996.80;;;;;;4900147;29;20060;-70
2021/10/13 09:13:16;;;;;;;19.67;12.57;;;358.40;1996.80;;;;;;4917591;29;20503;-70
2021/10/13 09:15:51;;;;;;;22.25;14.02;;;358.40;1996.80;;;;;;4917349;29;20052;-68
2021/10/13 09:18:19;;;;;;;;;;;358.40;1971.20;;;;;;4918010;29;20559;-63
2021/10/13 09:20:50;;;;;;;19.25;12.93;;;358.40;1971.20;;;;;;4917396;29;19922;-71
2021/10/13 09:23:29;;;;;;;19.70;13.48;;;358.40;1971.20;;;;;;4917405;29;20039;-70
2021/10/13 09:26:07;;;;;;;16.90;12.55;;;358.40;1996.80;;;;;;4917292;29;20451;-63
2021/10/13 09:28:34;;;;;;;16.55;12.20;;;358.50;1996.80;;;;;;4917279;29;20060;-70
2021/10/13 09:31:13;;;;;;;18.45;12.32;;;358.50;1971.20;;;;;;4917606;29;20074;-63
2021/10/13 09:33:54;;;;;;;17.65;10.05;;;358.50;1971.20;;;;;;4917460;29;20046;-63
2021/10/13 09:36:20;;;;;;;16.63;11.32;;;358.50;1945.60;;;;;;4917551;29;20084;-67
2021/10/13 09:38:46;;;;;;;22.70;13.95;;;358.60;1971.20;;;;;;4917448;29;20040;-71
2021/10/13 09:41:12;;;;;;;29.67;15.10;;;358.60;1971.20;;;;;;4917173;29;20044;-63
2021/10/13 09:43:39;;;;;;;18.92;11.20;;;358.70;1945.60;;;;;;4917143;29;20039;-63
2021/10/13 09:46:06;;;;;;;17.52;12.15;;;358.70;1945.60;;;;;;4921086;29;20509;-63
2021/10/13 09:48:33;;;;;;;21.50;12.70;;;358.80;1945.60;;;;;;4935139;29;20044;-62
2021/10/13 09:51:13;;;;;;;28.67;14.35;;;358.80;1945.60;;;;;;4930262;29;20086;-63
2021/10/13 09:53:40;;;;;;;36.40;18.20;;;358.90;1945.60;;;;;;4930006;29;20036;-64
2021/10/13 09:56:06;;;;;;;30.45;16.52;;;358.90;1945.60;;;;;;4935248;29;20040;-63
2021/10/13 09:58:36;;;;;;;20.88;12.07;;;359.00;1920.00;;;;;;4935318;29;20493;-63
2021/10/13 10:01:08;;;;;;;17.60;11.32;;;359.00;1920.00;;;;;;4935226;29;20393;-63
2021/10/13 10:03:40;;;;;;;13.32;9.90;;;359.00;1894.40;;;;;;4935305;29;20168;-66
2021/10/13 10:06:07;;;;;;;12.30;9.63;;;359.00;1894.40;;;;;;4935645;29;20066;-63
2021/10/13 10:08:57;;;;;;;12.95;9.50;;;358.90;1894.40;;;;;;4936717;29;20040;-65
2021/10/13 10:11:30;;;;;;;11.93;9.10;;;358.90;1894.40;;;;;;4939216;29;20040;-69
2021/10/13 10:13:56;;;;;;;13.60;9.57;;;358.90;1894.40;;;;;;4939287;29;20031;-71
2021/10/13 10:16:28;;;;;;;13.77;9.15;;;358.90;1894.40;;;;;;4939430;29;20064;-68
2021/10/13 10:18:54;;;;;;;12.60;9.52;;;358.90;1894.40;;;;;;4938132;29;20111;-70
2021/10/13 10:21:20;;;;;;;12.82;9.05;;;358.90;1868.80;;;;;;4939004;29;20525;-63
2021/10/13 10:24:10;;;;;;;13.70;9.80;;;358.90;1868.80;;;;;;4938087;29;20067;-63
2021/10/13 10:26:36;;;;;;;11.98;9.68;;;358.90;1894.40;;;;;;4937868;29;20525;-68
2021/10/13 10:29:11;;;;;;;16.42;10.18;;;358.90;1868.80;;;;;;4939034;29;20163;-69
2021/10/13 10:31:39;;;;;;;17.55;12.35;;;358.90;1868.80;;;;;;4939364;29;20120;-63
2021/10/13 10:34:09;;;;;;;15.07;10.95;;;358.90;1868.80;;;;;;4939212;29;20050;-63
2021/10/13 10:36:35;;;;;;;17.65;12.32;;;359.00;1868.80;;;;;;4939038;29;20063;-63
2021/10/13 10:39:06;;;;;;;32.83;20.38;;;359.00;1868.80;;;;;;4938877;29;20394;-69
2021/10/13 10:41:54;;;;;;;39.28;22.50;;;359.00;1868.80;;;;;;4939115;29;20043;-63
2021/10/13 10:44:33;;;;;;;42.22;21.25;;;359.00;1868.80;;;;;;4880288;29;20049;-63
2021/10/13 10:47:08;;;;;;;53.63;27.77;;;359.00;1894.40;;;;;;4877709;29;20045;-63
2021/10/13 10:49:43;;;;;;;27.00;16.52;;;359.00;1894.40;;;;;;4857576;29;20029;-64
2021/10/13 10:52:10;;;;;;;18.70;11.65;;;359.00;1868.80;;;;;;4859907;29;20550;-63
2021/10/13 10:54:36;;;;;;;14.38;7.97;;;359.00;1868.80;;;;;;4859854;29;20480;-65
2021/10/13 10:57:23;;;;;;;15.85;8.90;;;359.00;1868.80;;;;;;4859618;29;20171;-64
2021/10/13 10:59:48;;;;;;;11.63;8.60;;;359.10;1868.80;;;;;;4859683;29;20134;-67
2021/10/13 11:02:22;;;;;;;13.63;8.90;;;359.10;1868.80;;;;;;4860027;29;20172;-68
2021/10/13 11:05:10;;;;;;;14.00;8.13;;;359.10;1868.80;;;;;;4861228;29;20455;-66
2021/10/13 11:07:40;;;;;;;8.65;6.75;;;359.10;1868.80;;;;;;4861300;29;20049;-67
2021/10/13 11:10:12;;;;;;;10.57;7.07;;;359.10;1868.80;;;;;;4861309;29;20049;-67
2021/10/13 11:12:57;;;;;;;8.57;7.10;;;359.10;1868.80;;;;;;4860835;29;20097;-66
2021/10/13 11:15:28;;;;;;;6.57;5.75;;;359.10;1868.80;;;;;;4861334;29;20161;-67
2021/10/13 11:17:55;;;;;;;6.70;5.90;;;359.00;1868.80;;;;;;4861285;29;20034;-66
2021/10/13 11:20:24;;;;;;;10.60;6.00;;;359.00;1868.80;;;;;;4863862;29;20050;-67
2021/10/13 11:23:00;;;;;;;8.27;6.60;;;359.00;1868.80;;;;;;4916978;29;20060;-67
2021/10/13 11:25:27;;;;;;;12.10;7.43;;;359.00;1894.40;;;;;;4919064;29;20083;-67
2021/10/13 11:28:02;;;;;;;11.63;7.68;;;359.00;1894.40;;;;;;4919479;29;20055;-63
2021/10/13 11:30:34;;;;;;;12.43;7.63;;;359.00;1868.80;;;;;;4918995;29;20044;-69
2021/10/13 11:33:07;;;;;;;17.25;7.30;;;358.90;1868.80;;;;;;4919146;29;20064;-68
2021/10/13 11:35:33;;;;;;;33.58;9.02;;;358.90;1868.80;;;;;;4919060;29;20033;-67
2021/10/13 11:37:59;;;;;;;18.60;7.22;;;359.00;1843.20;;;;;;4919017;29;20036;-66
2021/10/13 11:40:26;;;;;;;10.95;6.65;;;358.90;1868.80;;;;;;4919020;29;20071;-67
2021/10/13 11:42:56;;;;;;;12.60;7.03;;;359.00;1843.20;;;;;;4918460;29;20032;-67
2021/10/13 11:45:22;;;;;;;8.70;6.80;;;359.00;1817.60;;;;;;4917846;29;20043;-65
2021/10/13 11:47:48;;;;;;;11.85;6.13;;;358.90;1817.60;;;;;;4918820;29;20024;-64
2021/10/13 11:50:21;;;;;;;13.40;5.60;;;358.90;1817.60;;;;;;4918421;29;20051;-65
2021/10/13 11:52:56;;;;;;;16.38;7.15;;;358.90;1792.00;;;;;;4925546;29;20054;-64
2021/10/13 11:55:28;;;;;;;8.70;5.90;;;358.90;1792.00;;;;;;4936786;29;20038;-63
2021/10/13 11:57:59;;;;;;;9.38;5.82;;;358.90;1792.00;;;;;;4937314;29;20047;-64
2021/10/13 12:00:28;;;;;;;14.43;5.72;;;358.90;1766.40;;;;;;4936968;29;20039;-62
2021/10/13 12:03:02;;;;;;;9.52;5.38;;;358.90;1792.00;;;;;;4931152;29;20054;-68
2021/10/13 12:05:37;;;;;;;8.32;5.97;;;358.90;1792.00;;;;;;4937291;29;20482;-67
2021/10/13 12:08:09;;;;;;;6.35;4.93;;;358.80;1792.00;;;;;;4936999;29;20058;-67
2021/10/13 12:10:39;;;;;;;13.70;6.13;;;358.80;1792.00;;;;;;4937312;29;20079;-67
2021/10/13 12:13:26;;;;;;;9.25;5.68;;;358.80;1766.40;;;;;;4936152;29;20529;-67
2021/10/13 12:15:59;;;;;;;10.88;6.97;;;358.80;1792.00;;;;;;4931686;29;20083;-66
2021/10/13 12:18:30;;;;;;;10.38;6.03;;;358.80;1766.40;;;;;;4935398;29;20549;-65
2021/10/13 12:21:02;;;;;;;7.53;5.15;;;358.80;1766.40;;;;;;4935408;29;20047;-66
2021/10/13 12:23:30;;;;;;;5.55;4.05;;;358.80;1740.80;;;;;;4931354;29;20055;-66
2021/10/13 12:25:56;;;;;;;8.35;5.07;;;358.80;1715.20;;;;;;4935464;29;20039;-61
2021/10/13 12:28:26;;;;;;;13.80;5.65;;;358.80;1715.20;;;;;;4935603;29;20693;-66
2021/10/13 12:31:29;;;;;;;8.23;4.95;;;358.80;1715.20;;;;;;4935619;29;20760;-66
2021/10/13 12:34:07;;;;;;;10.93;5.03;;;358.80;1715.20;;;;;;4932453;29;20038;-66
2021/10/13 12:36:39;;;;;;;10.77;5.43;;;358.80;1715.20;;;;;;4931773;29;20482;-67
2021/10/13 12:39:10;;;;;;;8.07;5.05;;;358.90;1715.20;;;;;;4935174;29;20131;-64
2021/10/13 12:41:43;;;;;;;9.55;4.72;;;358.90;1689.60;;;;;;4935354;29;20043;-62
2021/10/13 12:44:22;;;;;;;12.40;4.18;;;358.90;1689.60;;;;;;4930713;29;20504;-62
2021/10/13 12:46:59;;;;;;;7.05;3.25;;;358.90;1689.60;;;;;;4930476;29;20058;-61
2021/10/13 12:49:33;;;;;;;4.43;2.83;;;358.90;1664.00;;;;;;4935107;29;20047;-61
2021/10/13 12:52:10;;;;;;;9.55;5.55;;;358.90;1664.00;;;;;;4935046;29;20401;-65
2021/10/13 12:54:38;;;;;;;8.65;5.20;;;358.90;1664.00;;;;;;4936230;29;20038;-61
2021/10/13 12:57:12;;;;;;;13.40;4.95;;;358.90;1664.00;;;;;;4936627;29;20039;-66
2021/10/13 12:59:38;;;;;;;5.83;3.97;;;358.90;1664.00;;;;;;4936724;29;20031;-68
2021/10/13 13:02:04;;;;;;;7.82;5.32;;;358.90;1664.00;;;;;;4936588;29;20380;-62
2021/10/13 13:04:30;;;;;;;16.33;8.07;;;358.90;1664.00;;;;;;4936483;29;20380;-63
2021/10/13 13:06:55;;;;;;;12.95;8.88;;;358.90;1664.00;;;;;;4925138;29;20123;-62
2021/10/13 13:09:21;;;;;;;17.70;10.15;;;359.00;1664.00;;;;;;4922827;29;20024;-61
2021/10/13 13:11:47;;;;;;;13.40;6.35;;;359.00;1689.60;;;;;;4934757;29;20044;-65
2021/10/13 13:14:14;;;;;;;7.90;5.78;;;359.00;1638.40;;;;;;4934958;29;20066;-63
2021/10/13 13:16:41;;;;;;;12.68;6.97;;;359.00;1612.80;;;;;;4934978;29;20028;-61
2021/10/13 13:19:06;;;;;;;11.73;6.78;;;359.00;1612.80;;;;;;4935095;29;20127;-64
2021/10/13 13:21:32;;;;;;;15.68;6.88;;;359.00;1612.80;;;;;;4934771;29;20130;-61
2021/10/13 13:23:58;;;;;;;12.65;5.18;;;359.00;1561.60;;;;;;4934458;29;20024;-63
2021/10/13 13:26:23;;;;;;;10.20;5.75;;;359.00;1561.60;;;;;;4935055;29;20112;-63
2021/10/13 13:28:50;;;;;;;9.57;5.25;;;359.00;1561.60;;;;;;4934326;29;20389;-62
2021/10/13 13:31:17;;;;;;;11.98;5.85;;;359.00;1561.60;;;;;;4934681;29;20032;-60
2021/10/13 13:33:43;;;;;;;12.75;7.30;;;359.00;1536.00;;;;;;4934622;29;20036;-60
2021/10/13 13:36:10;;;;;;;25.83;10.57;;;358.90;1536.00;;;;;;4935381;29;20499;-70
2021/10/13 13:38:36;;;;;;;27.85;12.68;;;359.00;1587.20;;;;;;4935825;29;20466;-61
2021/10/13 13:41:02;;;;;;;17.15;10.05;;;359.00;1561.60;;;;;;4936641;29;20130;-67
2021/10/13 13:43:32;;;;;;;12.20;7.63;;;359.00;1561.60;;;;;;4937357;29;20398;-65
2021/10/13 13:45:58;;;;;;;10.98;6.30;;;358.90;1536.00;;;;;;4940077;29;20478;-69
2021/10/13 13:48:24;;;;;;;10.32;6.53;;;358.90;1536.00;;;;;;4940109;29;20038;-66
2021/10/13 13:50:50;;;;;;;14.02;6.20;;;358.80;1536.00;;;;;;4940095;29;20047;-68
2021/10/13 13:53:16;;;;;;;19.50;8.40;;;358.70;1561.60;;;;;;4939937;29;20053;-68
2021/10/13 13:55:43;;;;;;;14.55;6.78;;;358.70;1561.60;;;;;;4939889;29;20035;-69
2021/10/13 13:58:10;;;;;;;8.73;5.43;;;358.70;1561.60;;;;;;4939747;29;20489;-68
2021/10/13 14:00:36;;;;;;;7.70;3.85;;;358.60;1536.00;;;;;;4939521;29;20028;-69
2021/10/13 14:03:01;;;;;;;19.08;8.60;;;358.60;1510.40;;;;;;4939914;29;20170;-69
2021/10/13 14:05:27;;;;;;;14.40;6.07;;;358.60;1536.00;;;;;;4940039;29;20434;-69
2021/10/13 14:07:53;;;;;;;12.65;5.80;;;358.60;1536.00;;;;;;4939128;29;20039;-62
2021/10/13 14:10:19;;;;;;;15.57;5.55;;;358.60;1510.40;;;;;;4939367;29;20359;-63
2021/10/13 14:12:45;;;;;;;11.40;5.15;;;358.60;1510.40;;;;;;4938202;29;20043;-65
2021/10/13 14:15:11;;;;;;;14.93;6.45;;;358.50;1484.80;;;;;;4938006;29;20534;-63
2021/10/13 14:17:37;;;;;;;20.40;7.88;;;358.60;1484.80;;;;;;4920934;29;20099;-65
2021/10/13 14:20:04;;;;;;;18.92;6.95;;;358.60;1484.80;;;;;;4937277;29;20047;-66
2021/10/13 14:22:30;;;;;;;26.25;8.45;;;358.60;1510.40;;;;;;4937753;29;20032;-75
2021/10/13 14:24:57;;;;;;;28.27;9.00;;;358.60;1510.40;;;;;;4937411;29;20453;-68
2021/10/13 14:27:23;;;;;;;15.40;8.07;;;358.60;1536.00;;;;;;4937662;29;20128;-71
2021/10/13 14:29:49;;;;;;;11.45;6.10;;;358.60;1536.00;;;;;;4920672;29;20050;-68
2021/10/13 14:32:17;;;;;;;14.73;6.50;;;358.60;1561.60;;;;;;4937497;29;20541;-63
2021/10/13 14:34:46;;;;;;;9.48;6.38;;;358.50;1536.00;;;;;;4920593;29;20135;-77
2021/10/13 14:37:13;;;;;;;10.55;5.75;;;358.50;1587.20;;;;;;4939214;29;20378;-75
2021/10/13 14:39:39;;;;;;;7.28;4.72;;;358.40;1587.20;;;;;;4939024;29;20035;-76
2021/10/13 14:42:05;;;;;;;8.95;4.35;;;358.40;1561.60;;;;;;4939348;29;20102;-71
2021/10/13 14:44:31;;;;;;;8.73;4.53;;;333.70;1587.20;;;;;;4939005;29;20359;-63
2021/10/13 14:46:56;;;;;;;8.65;5.47;;;333.70;1587.20;;;;;;4939148;29;20452;-72
2021/10/13 14:49:22;;;;;;;10.45;5.43;;;333.60;1587.20;;;;;;4939005;29;20031;-72
2021/10/13 14:51:48;;;;;;;8.40;4.68;;;333.60;1612.80;;;;;;4938991;29;20058;-74
2021/10/13 14:54:14;;;;;;;11.77;6.28;;;333.60;1587.20;;;;;;4937997;29;20512;-73
2021/10/13 14:56:40;;;;;;;15.43;7.32;;;333.50;1612.80;;;;;;4936684;29;20041;-62
2021/10/13 14:59:05;;;;;;;16.17;8.45;;;333.50;1612.80;;;;;;4937175;29;20042;-73
2021/10/13 15:01:31;;;;;;;20.92;7.28;;;333.50;1612.80;;;;;;4913748;29;20044;-74
2021/10/13 15:03:59;;;;;;;19.13;7.10;;;333.50;1638.40;;;;;;4935771;29;20036;-74
2021/10/13 15:06:25;;;;;;;19.13;8.02;;;333.50;1612.80;;;;;;4937160;29;20039;-75
2021/10/13 15:08:51;;;;;;;12.15;6.68;;;333.50;1587.20;;;;;;4936933;29;20032;-74
2021/10/13 15:11:17;;;;;;;13.55;6.47;;;333.50;1587.20;;;;;;4936988;29;20039;-63
2021/10/13 15:13:43;;;;;;;15.38;8.43;;;333.50;1587.20;;;;;;4936532;29;20040;-74
2021/10/13 15:16:09;;;;;;;19.75;8.70;;;333.40;1612.80;;;;;;4936739;29;20042;-73
2021/10/13 15:18:35;;;;;;;30.48;10.73;;;333.50;1612.80;;;;;;4936756;29;20113;-72
2021/10/13 15:21:00;;;;;;;28.83;12.05;;;333.40;1612.80;;;;;;4936713;29;20071;-63
2021/10/13 15:23:26;;;;;;;22.17;10.20;;;333.40;1612.80;;;;;;4936453;29;20103;-72
2021/10/13 15:25:52;;;;;;;20.15;10.60;;;333.40;1587.20;;;;;;4936090;29;20509;-74
2021/10/13 15:28:18;;;;;;;20.17;9.18;;;333.40;1587.20;;;;;;4936574;29;20032;-64
2021/10/13 15:30:44;;;;;;;17.58;8.43;;;333.40;1561.60;;;;;;4936596;29;20040;-64
2021/10/13 15:33:09;;;;;;;17.90;7.55;;;333.30;1612.80;;;;;;4936406;29;20031;-70
2021/10/13 15:35:39;;;;;;;21.17;8.68;;;333.30;1587.20;;;;;;4936304;29;20438;-73
2021/10/13 15:38:05;;;;;;;23.73;11.18;;;333.30;1612.80;;;;;;4936122;29;20103;-63
2021/10/13 15:40:31;;;;;;;41.03;17.52;;;333.30;1638.40;;;;;;4935760;29;20530;-73
2021/10/13 15:43:00;;;;;;;35.45;15.43;;;333.30;1638.40;;;;;;4936305;29;20123;-69
2021/10/13 15:45:26;;;;;;;20.15;10.85;;;333.30;1638.40;;;;;;4935890;29;20110;-73
2021/10/13 15:47:51;;;;;;;20.13;10.43;;;333.20;1638.40;;;;;;4935795;29;20114;-73
2021/10/13 15:50:17;;;;;;;19.13;8.65;;;333.20;1638.40;;;;;;4935937;29;20106;-72
2021/10/13 15:52:43;;;;;;;15.23;6.97;;;333.20;1638.40;;;;;;4935819;29;20066;-65
2021/10/13 15:55:10;;;;;;;11.63;6.30;;;333.20;1664.00;;;;;;4935835;29;20032;-63
2021/10/13 15:57:37;;;;;;;15.20;6.60;;;333.20;1638.40;;;;;;4935842;29;20095;-63
2021/10/13 16:00:05;;;;;;;11.45;6.00;;;333.10;1664.00;;;;;;4935853;29;20443;-63
2021/10/13 16:02:32;;;;;;;13.38;6.70;;;333.10;1664.00;;;;;;4935802;29;20103;-72
2021/10/13 16:04:58;;;;;;;11.65;6.93;;;333.10;1689.60;;;;;;4937486;29;20043;-65
2021/10/13 16:07:24;;;;;;;21.08;8.90;;;333.10;1664.00;;;;;;4937006;29;20050;-69
2021/10/13 16:09:50;;;;;;;28.88;12.20;;;333.10;1664.00;;;;;;4937108;29;20039;-74
2021/10/13 16:12:15;;;;;;;41.60;15.23;;;333.10;1664.00;;;;;;4937652;29;20036;-73
2021/10/13 16:14:41;;;;;;;33.33;17.48;;;333.10;1689.60;;;;;;4937696;29;20032;-64
2021/10/13 16:17:07;;;;;;;29.48;17.52;;;333.10;1689.60;;;;;;4937116;29;20051;-71
2021/10/13 16:19:33;;;;;;;40.90;21.15;;;333.00;1689.60;;;;;;4937450;29;20071;-64
2021/10/13 16:21:59;;;;;;;35.50;20.83;;;333.00;1689.60;;;;;;4937161;29;20048;-64
2021/10/13 16:24:27;;;;;;;25.77;15.02;;;332.90;1689.60;;;;;;4937202;29;20114;-64
2021/10/13 16:26:53;;;;;;;23.85;13.40;;;332.90;1715.20;;;;;;4937425;29;20066;-72
2021/10/13 16:29:18;;;;;;;21.92;15.32;;;332.90;1689.60;;;;;;4936873;29;20071;-64
2021/10/13 16:31:47;;;;;;;26.48;17.17;;;332.90;1715.20;;;;;;4937084;29;20438;-64
2021/10/13 16:34:14;;;;;;;28.42;18.10;;;332.90;1689.60;;;;;;4937090;29;20381;-73
2021/10/13 16:36:44;;;;;;;39.00;18.13;;;332.80;1715.20;;;;;;4936981;29;20087;-71
2021/10/13 16:39:13;;;;;;;40.45;18.92;;;332.80;1715.20;;;;;;4936736;29;20038;-72
2021/10/13 16:41:39;;;;;;;45.30;19.33;;;332.80;1740.80;;;;;;4919133;29;20409;-72
2021/10/13 16:44:05;;;;;;;30.33;15.20;;;332.80;1740.80;;;;;;4935156;29;20118;-73
2021/10/13 16:46:31;;;;;;;23.88;15.98;;;332.80;1715.20;;;;;;4935187;29;20541;-73
2021/10/13 16:48:57;;;;;;;28.70;16.33;;;308.10;1689.60;;;;;;4935037;29;20832;-73
2021/10/13 16:51:25;;;;;;;28.67;16.48;;;308.10;1715.20;;;;;;4934977;29;20034;-69
2021/10/13 16:53:54;;;;;;;26.17;14.70;;;308.10;1715.20;;;;;;4936704;29;20043;-73
2021/10/13 16:56:20;;;;;;;24.92;13.93;;;308.10;1715.20;;;;;;4936173;29;20039;-73
2021/10/13 16:58:46;;;;;;;24.58;14.40;;;308.10;1715.20;;;;;;4936567;29;20032;-73
2021/10/13 17:01:14;;;;;;;26.92;13.60;;;308.10;1715.20;;;;;;4936371;29;20050;-73
2021/10/13 17:03:41;;;;;;;21.48;14.00;;;308.00;1715.20;;;;;;4936478;29;20038;-73
2021/10/13 17:06:07;;;;;;;21.83;11.77;;;308.00;1740.80;;;;;;4936816;29;20040;-74
2021/10/13 17:08:32;;;;;;;17.10;11.07;;;308.00;1740.80;;;;;;4936425;29;20363;-73
2021/10/13 17:10:58;;;;;;;14.65;10.75;;;308.00;1715.20;;;;;;4936615;29;20095;-72
2021/10/13 17:13:24;;;;;;;14.07;10.32;;;308.00;1740.80;;;;;;4936661;29;20103;-73
2021/10/13 17:15:50;;;;;;;16.00;10.82;;;308.00;1740.80;;;;;;4937191;29;20522;-73
2021/10/13 17:18:15;;;;;;;16.88;10.38;;;307.90;1740.80;;;;;;4935837;29;20040;-73
2021/10/13 17:20:41;;;;;;;18.27;10.70;;;307.90;1740.80;;;;;;4936284;29;20051;-72
2021/10/13 17:23:07;;;;;;;16.00;10.27;;;307.90;1740.80;;;;;;4918554;29;20039;-73
2021/10/13 17:25:33;;;;;;;13.30;9.55;;;307.90;1740.80;;;;;;4936114;29;20047;-73
2021/10/13 17:27:59;;;;;;;23.33;10.60;;;307.90;1740.80;;;;;;4919012;29;20390;-73
2021/10/13 17:30:25;;;;;;;32.72;16.27;;;307.90;1740.80;;;;;;4936510;29;20039;-73